• Join FlightAware (Why Join?)
  • Login
  • US Flag 
12:21PM EST


 

Airport Tracker/Info


-or-


 

Live Flight TrackerFlight Track Log ✈ CSN6887 ✈ 24-Apr-2013 ✈ ZWWW / URC - ZGGG / CAN

Flight Track Log - Related Links

Times and Time Zones

All times are in EDT time to prevent confusion due to time zone crossing. See the CSN6887 flight status page for this flight to view local times or setup timezone preferences in your user account.

Time Position Orientation Groundspeed Altitude Reporting Facility
EDT Latitude Longitude Course Direction KTS MPH feet Rate Location/Type
09:07AM 43.8386 87.6065 126° Southeast  Level Estimated
09:08AM 43.7699 87.7385 126° Southeast  Level Estimated
09:09AM 43.7010 87.8702 126° Southeast  Level Estimated
09:10AM 43.6320 88.0016 126° Southeast  Level Estimated
09:11AM 43.5629 88.1327 126° Southeast  Level Estimated
09:12AM 43.4936 88.2635 126° Southeast  Level Estimated
09:13AM 43.4241 88.3940 126° Southeast  Level Estimated
09:14AM 43.3545 88.5241 126° Southeast  Level Estimated
09:15AM 43.2848 88.6540 126° Southeast  Level Estimated
09:16AM 43.2149 88.7836 126° Southeast  Level Estimated
09:17AM 43.1448 88.9129 127° Southeast  Level Estimated
09:18AM 43.0747 89.0419 127° Southeast  Level Estimated
09:19AM 43.0043 89.1706 127° Southeast  Level Estimated
09:20AM 42.9339 89.2990 127° Southeast  Level Estimated
09:21AM 42.8633 89.4271 127° Southeast  Level Estimated
09:22AM 42.7925 89.5549 127° Southeast  Level Estimated
09:23AM 42.7216 89.6824 127° Southeast  Level Estimated
09:24AM 42.6506 89.8097 127° Southeast  Level Estimated
09:25AM 42.5794 89.9366 127° Southeast  Level Estimated
09:26AM 42.5080 90.0632 127° Southeast  Level Estimated
09:27AM 42.4366 90.1896 127° Southeast  Level Estimated
09:28AM 42.3650 90.3157 128° Southeast  Level Estimated
09:29AM 42.2933 90.4415 128° Southeast  Level Estimated
09:30AM 42.2214 90.5670 128° Southeast  Level Estimated
09:31AM 42.1494 90.6922 128° Southeast  Level Estimated
09:32AM 42.0772 90.8171 128° Southeast  Level Estimated
09:33AM 42.0050 90.9418 128° Southeast  Level Estimated
09:34AM 41.9325 91.0661 128° Southeast  Level Estimated
09:35AM 41.8600 91.1902 128° Southeast  Level Estimated
09:36AM 41.7873 91.3140 128° Southeast  Level Estimated
09:37AM 41.7145 91.4375 128° Southeast  Level Estimated
09:38AM 41.6415 91.5608 128° Southeast  Level Estimated
09:39AM 41.5685 91.6837 128° Southeast  Level Estimated
09:40AM 41.4953 91.8064 129° Southeast  Level Estimated
09:41AM 41.4219 91.9288 129° Southeast  Level Estimated
09:42AM 41.3484 92.0510 129° Southeast  Level Estimated
09:43AM 41.2748 92.1728 129° Southeast  Level Estimated
09:44AM 41.2011 92.2944 129° Southeast  Level Estimated
09:45AM 41.1273 92.4157 129° Southeast  Level Estimated
09:46AM 41.0533 92.5367 129° Southeast  Level Estimated
09:47AM 40.9792 92.6575 129° Southeast  Level Estimated
09:48AM 40.9050 92.7780 129° Southeast  Level Estimated
09:49AM 40.8306 92.8982 129° Southeast  Level Estimated
09:50AM 40.7561 93.0181 129° Southeast  Level Estimated
09:51AM 40.6815 93.1378 129° Southeast  Level Estimated
09:52AM 40.6068 93.2572 129° Southeast  Level Estimated
09:53AM 40.5319 93.3764 130° Southeast  Level Estimated
09:54AM 40.4570 93.4953 130° Southeast  Level Estimated
09:55AM 40.3819 93.6139 130° Southeast  Level Estimated
09:56AM 40.3067 93.7322 130° Southeast  Level Estimated
09:57AM 40.2313 93.8503 130° Southeast  Level Estimated
09:58AM 40.1559 93.9681 130° Southeast  Level Estimated
09:59AM 40.0803 94.0857 130° Southeast  Level Estimated
10:00AM 40.0046 94.2030 130° Southeast  Level Estimated
10:01AM 39.9288 94.3200 130° Southeast  Level Estimated
10:02AM 39.8529 94.4368 130° Southeast  Level Estimated
10:03AM 39.7768 94.5533 130° Southeast  Level Estimated
10:04AM 39.7006 94.6696 130° Southeast  Level Estimated
10:05AM 39.6244 94.7856 130° Southeast  Level Estimated
10:06AM 39.5480 94.9014 131° Southeast  Level Estimated
10:07AM 39.4715 95.0169 131° Southeast  Level Estimated
10:08AM 39.3949 95.1321 131° Southeast  Level Estimated
10:09AM 39.3181 95.2471 131° Southeast  Level Estimated
10:10AM 39.2413 95.3618 131° Southeast  Level Estimated
10:11AM 39.1643 95.4763 131° Southeast  Level Estimated
10:12AM 39.0872 95.5906 131° Southeast  Level Estimated
10:13AM 39.0101 95.7046 131° Southeast  Level Estimated
10:14AM 38.9328 95.8183 131° Southeast  Level Estimated
10:15AM 38.8554 95.9318 131° Southeast  Level Estimated
10:16AM 38.7779 96.0450 131° Southeast  Level Estimated
10:17AM 38.7002 96.1580 131° Southeast  Level Estimated
10:18AM 38.6225 96.2708 131° Southeast  Level Estimated
10:19AM 38.5447 96.3833 131° Southeast  Level Estimated
10:20AM 38.4667 96.4956 132° Southeast  Level Estimated
10:21AM 38.3887 96.6076 132° Southeast  Level Estimated
10:22AM 38.3105 96.7194 132° Southeast  Level Estimated
10:23AM 38.2322 96.8309 132° Southeast  Level Estimated
10:24AM 38.1539 96.9422 132° Southeast  Level Estimated
10:25AM 38.0754 97.0533 132° Southeast  Level Estimated
10:26AM 37.9968 97.1641 132° Southeast  Level Estimated
10:27AM 37.9181 97.2747 132° Southeast  Level Estimated
10:28AM 37.8393 97.3850 132° Southeast  Level Estimated
10:29AM 37.7604 97.4951 132° Southeast  Level Estimated
10:30AM 37.6815 97.6050 132° Southeast  Level Estimated
10:31AM 37.6024 97.7147 132° Southeast  Level Estimated
10:32AM 37.5232 97.8241 132° Southeast  Level Estimated
10:33AM 37.4439 97.9332 132° Southeast  Level Estimated
10:34AM 37.3645 98.0422 132° Southeast  Level Estimated
10:35AM 37.2850 98.1509 133° Southeast  Level Estimated
10:36AM 37.2054 98.2594 133° Southeast  Level Estimated
10:37AM 37.1257 98.3677 133° Southeast  Level Estimated
10:38AM 37.0459 98.4757 133° Southeast  Level Estimated
10:39AM 36.9660 98.5835 133° Southeast  Level Estimated
10:40AM 36.8860 98.6911 133° Southeast  Level Estimated
10:41AM 36.8060 98.7984 133° Southeast  Level Estimated
10:42AM 36.7258 98.9055 133° Southeast  Level Estimated
10:43AM 36.6455 99.0125 133° Southeast  Level Estimated
10:44AM 36.5651 99.1191 133° Southeast  Level Estimated
10:45AM 36.4846 99.2256 133° Southeast  Level Estimated
10:46AM 36.4041 99.3318 133° Southeast  Level Estimated
10:47AM 36.3234 99.4379 133° Southeast  Level Estimated
10:48AM 36.2427 99.5437 133° Southeast  Level Estimated
10:49AM 36.1618 99.6492 133° Southeast  Level Estimated
10:50AM 36.0809 99.7546 134° Southeast  Level Estimated
10:51AM 35.9999 99.8597 134° Southeast  Level Estimated
10:52AM 35.9188 99.9647 134° Southeast  Level Estimated
10:53AM 35.8376 100.0694 134° Southeast  Level Estimated
10:54AM 35.7563 100.1739 134° Southeast  Level Estimated
10:55AM 35.6749 100.2782 134° Southeast  Level Estimated
10:56AM 35.5934 100.3823 134° Southeast  Level Estimated
10:57AM 35.5118 100.4861 134° Southeast  Level Estimated
10:58AM 35.4302 100.5898 134° Southeast  Level Estimated
10:59AM 35.3484 100.6932 134° Southeast  Level Estimated
11:00AM 35.2666 100.7964 134° Southeast  Level Estimated
11:01AM 35.1847 100.8995 134° Southeast  Level Estimated
11:02AM 35.1027 101.0023 134° Southeast  Level Estimated
11:03AM 35.0206 101.1049 134° Southeast  Level Estimated
11:04AM 34.9384 101.2073 134° Southeast  Level Estimated
11:05AM 34.8561 101.3095 134° Southeast  Level Estimated
11:06AM 34.7738 101.4115 134° Southeast  Level Estimated
11:07AM 34.6913 101.5133 135° Southeast  Level Estimated
11:08AM 34.6088 101.6149 135° Southeast  Level Estimated
11:09AM 34.5262 101.7163 135° Southeast  Level Estimated
11:10AM 34.4435 101.8175 135° Southeast  Level Estimated
11:11AM 34.3608 101.9185 135° Southeast  Level Estimated
11:12AM 34.2779 102.0193 135° Southeast  Level Estimated
11:13AM 34.1950 102.1199 135° Southeast  Level Estimated
11:14AM 34.1119 102.2202 135° Southeast  Level Estimated
11:15AM 34.0289 102.3204 135° Southeast  Level Estimated
11:16AM 33.9457 102.4204 135° Southeast  Level Estimated
11:17AM 33.8624 102.5202 135° Southeast  Level Estimated
11:18AM 33.7791 102.6198 135° Southeast  Level Estimated
11:19AM 33.6956 102.7193 135° Southeast  Level Estimated
11:20AM 33.6121 102.8185 135° Southeast  Level Estimated
11:21AM 33.5286 102.9175 135° Southeast  Level Estimated
11:22AM 33.4449 103.0163 135° Southeast  Level Estimated
11:23AM 33.3612 103.1150 135° Southeast  Level Estimated
11:24AM 33.2774 103.2134 136° Southeast  Level Estimated
11:25AM 33.1935 103.3117 136° Southeast  Level Estimated
11:26AM 33.1095 103.4098 136° Southeast  Level Estimated
11:27AM 33.0255 103.5077 136° Southeast  Level Estimated
11:28AM 32.9413 103.6054 136° Southeast  Level Estimated
11:29AM 32.8571 103.7029 136° Southeast  Level Estimated
11:30AM 32.7729 103.8003 136° Southeast  Level Estimated
11:31AM 32.6885 103.8974 136° Southeast  Level Estimated
11:32AM 32.6041 103.9944 136° Southeast  Level Estimated
11:33AM 32.5196 104.0912 136° Southeast  Level Estimated
11:34AM 32.4350 104.1878 136° Southeast  Level Estimated
11:35AM 32.3504 104.2842 136° Southeast  Level Estimated
11:36AM 32.2657 104.3804 136° Southeast  Level Estimated
11:37AM 32.1809 104.4765 136° Southeast  Level Estimated
11:38AM 32.0960 104.5724 136° Southeast  Level Estimated
11:39AM 32.0111 104.6681 136° Southeast  Level Estimated
11:40AM 31.9261 104.7636 136° Southeast  Level Estimated
11:41AM 31.8410 104.8589 136° Southeast  Level Estimated
11:42AM 31.7558 104.9541 136° Southeast  Level Estimated
11:43AM 31.6706 105.0491 136° Southeast  Level Estimated
11:44AM 31.5853 105.1440 137° Southeast  Level Estimated
11:45AM 31.5000 105.2386 137° Southeast  Level Estimated
11:46AM 31.4145 105.3331 137° Southeast  Level Estimated
11:47AM 31.3290 105.4274 137° Southeast  Level Estimated
11:48AM 31.2435 105.5215 137° Southeast  Level Estimated
11:49AM 31.1578 105.6155 137° Southeast  Level Estimated
11:50AM 31.0721 105.7093 137° Southeast  Level Estimated
11:51AM 30.9863 105.8029 137° Southeast  Level Estimated
11:52AM 30.9005 105.8964 137° Southeast  Level Estimated
11:53AM 30.8146 105.9897 137° Southeast  Level Estimated
11:54AM 30.7286 106.0828 137° Southeast  Level Estimated
11:55AM 30.6426 106.1758 137° Southeast  Level Estimated
11:56AM 30.5565 106.2685 137° Southeast  Level Estimated
11:57AM 30.4703 106.3612 137° Southeast  Level Estimated
11:58AM 30.3841 106.4537 137° Southeast  Level Estimated
11:59AM 30.2978 106.5460 137° Southeast  Level Estimated
12:00PM 30.2114 106.6381 137° Southeast  Level Estimated
12:01PM 30.1250 106.7301 137° Southeast  Level Estimated
12:02PM 30.0385 106.8219 137° Southeast  Level Estimated
12:03PM 29.9519 106.9136 137° Southeast  Level Estimated
12:04PM 29.8653 107.0051 137° Southeast  Level Estimated
12:05PM 29.7786 107.0964 138° Southeast  Level Estimated
12:06PM 29.6918 107.1876 138° Southeast  Level Estimated
12:07PM 29.6050 107.2786 138° Southeast  Level Estimated
12:08PM 29.5182 107.3695 138° Southeast  Level Estimated
12:09PM 29.4312 107.4602 138° Southeast  Level Estimated
12:10PM 29.3442 107.5507 138° Southeast  Level Estimated
12:11PM 29.2572 107.6411 138° Southeast  Level Estimated
12:12PM 29.1700 107.7314 138° Southeast  Level Estimated
12:13PM 29.0829 107.8215 138° Southeast  Level Estimated
12:14PM 28.9956 107.9114 138° Southeast  Level Estimated
12:15PM 28.9083 108.0012 138° Southeast  Level Estimated
12:16PM 28.8210 108.0908 138° Southeast  Level Estimated
12:17PM 28.7335 108.1803 138° Southeast  Level Estimated
12:18PM 28.6461 108.2697 138° Southeast  Level Estimated
12:19PM 28.5585 108.3589 138° Southeast  Level Estimated
12:20PM 28.4709 108.4479 138° Southeast  Level Estimated
12:21PM 28.3833 108.5368 138° Southeast  Level Estimated
12:22PM 28.2956 108.6255 138° Southeast  Level Estimated
12:23PM 28.2078 108.7141 138° Southeast  Level Estimated
12:24PM 28.1200 108.8026 138° Southeast  Level Estimated
12:25PM 28.0321 108.8909 138° Southeast  Level Estimated
12:26PM 27.9442 108.9791 138° Southeast  Level Estimated
12:27PM 27.8562 109.0671 138° Southeast  Level Estimated
12:28PM 27.7682 109.1550 139° Southeast  Level Estimated
12:29PM 27.6801 109.2427 139° Southeast  Level Estimated
12:30PM 27.5919 109.3303 139° Southeast  Level Estimated
12:31PM 27.5037 109.4178 139° Southeast  Level Estimated
12:32PM 27.4154 109.5051 139° Southeast  Level Estimated
12:33PM 27.3271 109.5923 139° Southeast  Level Estimated
12:34PM 27.2387 109.6793 139° Southeast  Level Estimated
12:35PM 27.1503 109.7662 139° Southeast  Level Estimated
12:36PM 27.0618 109.8530 139° Southeast  Level Estimated
12:37PM 26.9733 109.9396 139° Southeast  Level Estimated
12:38PM 26.8847 110.0261 139° Southeast  Level Estimated
12:39PM 26.7960 110.1124 139° Southeast  Level Estimated
12:40PM 26.7074 110.1987 139° Southeast  Level Estimated
12:40PM 24.5060 110.9520 139° Southeast 480 552 37,100  Level FlightAware
12:41PM 26.6186 110.2847 139° Southeast  Level Estimated
12:41PM 24.4530 111.0110 135° Southeast 480 552 37,100  Level FlightAware
12:42PM 24.3780 111.0910 136° Southeast 480 552 37,100 -360 Level FlightAware
12:42PM 24.3090 111.1630 136° Southeast 478 550 36,600 -900 Descending FlightAware
12:43PM 24.2570 111.2190 136° Southeast 480 552 36,000 -1,080 Descending FlightAware
12:44PM 24.1720 111.3100 136° Southeast 481 554 35,100 -600 Descending FlightAware
12:44PM 24.1180 111.3680 136° Southeast 481 554 35,100 -1,920 Level FlightAware
12:45PM 24.0390 111.4540 135° Southeast 476 548 32,400 -2,880 Descending FlightAware
12:46PM 23.9750 111.5230 135° Southeast 475 547 31,100 -1,380 Descending FlightAware
12:46PM 23.9110 111.5930 135° Southeast 481 554 30,500 -480 Descending FlightAware
12:47PM 23.8570 111.6520 135° Southeast 481 554 30,500 -2,700 Level FlightAware
12:48PM 23.7700 111.7420 137° Southeast 466 536 26,700 -3,780 Descending FlightAware
12:49PM 23.7080 111.8090 135° Southeast 451 519 25,200 -2,040 Descending FlightAware
12:49PM 23.6510 111.8700 136° Southeast 437 503 24,000 -1,920 Descending FlightAware
12:50PM 23.5850 111.9400 136° Southeast 422 486 22,500 -2,280 Descending FlightAware
12:51PM 23.5280 112.0010 136° Southeast 419 482 20,800 -2,100 Descending FlightAware
12:51PM 23.4740 112.0590 135° Southeast 417 480 19,700 -1,560 Descending FlightAware
12:52PM 23.4120 112.1240 136° Southeast 414 476 18,600 -1,500 Descending FlightAware
12:53PM 23.3570 112.1820 136° Southeast 409 471 17,600 -1,560 Descending FlightAware
12:53PM 23.2970 112.2460 136° Southeast 396 456 16,400 -1,680 Descending FlightAware
12:54PM 23.2590 112.2910 133° Southeast 392 451 15,500 -1,980 Descending FlightAware
12:54PM 23.2460 112.3350 108° East 392 451 14,600 -2,340 Descending FlightAware
12:55PM 23.2490 112.4030 87° East 394 453 13,200 -2,160 Descending FlightAware
12:56PM 23.2540 112.5030 87° East 388 447 11,600 -1,560 Descending FlightAware
12:56PM 23.2590 112.5810 86° East 365 420 10,900 -600 Descending FlightAware
12:57PM 23.2630 112.6510 86° East 328 377 10,800 -120 Descending FlightAware
12:58PM 23.2680 112.7200 85° East 322 371 10,800 -480 Level FlightAware
12:59PM 23.2720 112.7850 86° East 319 367 10,200 -1,020 Descending FlightAware
12:59PM 23.2730 112.8070 87° East 316 364 9,900 -1,080 Descending FlightAware
12:59PM 23.2760 112.8500 86° East 316 364 9,500 -1,080 Descending FlightAware
12:59PM 23.2780 112.8740 85° East 316 364 9,200 -1,020 Descending FlightAware
01:00PM 23.2890 112.8950 60° Northeast 314 361 9,000 -1,020 Descending FlightAware
01:00PM 23.3050 112.9090 39° Northeast 309 356 8,700 -1,020 Descending FlightAware
01:00PM 23.3240 112.9230 34° Northeast 306 352 8,500 -1,080 Descending FlightAware
01:01PM 23.3520 112.9450 36° Northeast 298 343 8,000 -1,080 Descending FlightAware
01:01PM 23.3660 112.9600 45° Northeast 299 344 7,800 -960 Descending FlightAware
01:01PM 23.3990 112.9890 39° Northeast 297 342 7,300 -1,020 Descending FlightAware
01:02PM 23.4270 113.0140 39° Northeast 297 342 6,900 -1,080 Descending FlightAware
01:02PM 23.4430 113.0270 37° Northeast 297 342 6,600 -1,080 Descending FlightAware
01:03PM 23.4740 113.0550 40° Northeast 295 339 6,100 -660 Descending FlightAware
01:03PM 23.5020 113.0800 39° Northeast 291 335 6,000 -120 Descending FlightAware
01:03PM 23.5310 113.1050 38° Northeast 265 305 6,000  Level FlightAware
01:04PM 23.5590 113.1300 39° Northeast 237 273 6,000  Level FlightAware
01:04PM 23.5670 113.1370 39° Northeast 228 262 6,000  Level FlightAware
01:05PM 23.5910 113.1580 39° Northeast 208 239 6,000  Level FlightAware
01:05PM 23.6010 113.1670 40° Northeast 206 237 6,000  Level FlightAware
01:05PM 23.6200 113.1840 39° Northeast 205 236 6,000 -240 Level FlightAware
01:06PM 23.6410 113.2020 38° Northeast 206 237 5,800 -720 Descending FlightAware
01:06PM 23.6650 113.2240 40° Northeast 211 243 5,300 -900 Descending FlightAware
01:07PM 23.6830 113.2410 41° Northeast 211 243 5,000 -600 Descending FlightAware
01:07PM 23.6920 113.2510 45° Northeast 209 241 4,900 -720 Descending FlightAware
01:07PM 23.6930 113.2620 84° East 205 236 4,700 -1,080 Descending FlightAware
01:08PM 23.6860 113.2930 104° East 199 229 4,200 -960 Descending FlightAware
01:08PM 23.6830 113.3060 104° East 198 228 4,000 -900 Descending FlightAware
01:08PM 23.6750 113.3320 109° East 193 222 3,600 -600 Descending FlightAware
01:09PM 23.6440 113.3480 155° Southeast 182 209 3,300 -420 Descending FlightAware
01:10PM 23.6140 113.3470 182° South 174 200 3,100 -180 Descending FlightAware
01:10PM 23.5860 113.3400 193° South 164 189 3,100  Level FlightAware
01:10PM 23.5750 113.3370 194° South 163 188 3,100 -300 Level FlightAware
01:11PM 23.5570 113.3320 194° South 156 180 2,900 -600 Descending FlightAware
01:11PM 23.5370 113.3270 193° South 140 161 2,600 -600 Descending FlightAware
01:12PM 23.5190 113.3220 194° South 131 151 2,300 -420 Descending FlightAware
01:12PM 23.5030 113.3180 193° South 130 150 2,200 -240 Descending FlightAware
01:15PM 23.3924 113.2988 189° South  Level Estimated
01:16PM 23.3924 113.2988 223° Southwest  Level Estimated
01:17PM 23.3924 113.2988 223° Southwest  Level Estimated
01:18PM 23.3924 113.2988 223° Southwest  Level Estimated
01:19PM 23.3924 113.2988 223° Southwest  Level Estimated
01:20PM 23.3924 113.2988 223° Southwest  Level Estimated
01:21PM 23.3924 113.2988 223° Southwest  Level Estimated
01:22PM 23.3924 113.2988 223° Southwest  Level Estimated
01:23PM 23.3924 113.2988 223° Southwest  Level Estimated
01:24PM 23.3924 113.2988 223° Southwest  Level Estimated
01:25PM 23.3924 113.2988 223° Southwest  Level Estimated
01:26PM 23.3924 113.2988 223° Southwest  Level Estimated
01:27PM 23.3924 113.2988 223° Southwest  Level Estimated